KGAI/GAI METAR and TAF weather

Enter ICAO airport designator
Station Type Date Time Source
KGAI METAR 2021/05/13 05:56 UTC NOAA

KGAI 130556Z AUTO 00000KT 10SM CLR 06/04 A3024 RMK AO2 SLP257 T00610039 10150 20061 50003


Station Type Date Time Source
KGAI Decoded METAR 2021/05/13 05:56 UTC NOAA

Station name not available
May 13, 2021 - 01:56 AM EDT / 2021.05.13 0556 UTC
Wind: Calm:0
Visibility: 10 mile(s):0
Sky conditions: clear
Temperature: 43.0 F (6.1 C)
Dew Point: 39.0 F (3.9 C)
Relative Humidity: 85%
Pressure (altimeter): 30.24 in. Hg (1024 hPa)
Pressure tendency: 0.01 inches (0.3 hPa) higher than three hours ago
ob: KGAI 130556Z AUTO 00000KT 10SM CLR 06/04 A3024 RMK AO2 SLP257 T00610039 10150 20061 50003
cycle: 6

Station Type Date Time Source
KGAI TAF UTC NOAA

Error!

Example: see airport list